Time;durP1;ratioP1;P1;durP2;ratioP2;P2;SDS_P1;SDS_P2;PMS_P1;PMS_P2;Temp;Humidity;BMP_temperature;BMP_pressure;BME280_temperature;BME280_humidity;BME280_pressure;Samples;Min_cycle;Max_cycle;Signal;HPM_P1;HPM_P2
2022/09/12 00:01:56;;;;;;;6.78;3.08;;;;;;;10.71;75.43;101104.52;1846014;77;22694;-87
2022/09/12 00:04:23;;;;;;;4.25;3.20;;;;;;;10.63;75.48;101109.55;1799315;78;21058;-87
2022/09/12 00:06:50;;;;;;;4.78;3.35;;;;;;;10.62;75.53;101113.05;1755508;81;21762;-86
2022/09/12 00:09:16;;;;;;;6.67;3.15;;;;;;;10.62;75.57;101113.45;1791241;79;21043;-85
2022/09/12 00:11:45;;;;;;;8.58;3.40;;;;;;;10.59;75.58;101110.74;1755985;81;21085;-87
2022/09/12 00:14:14;;;;;;;6.00;3.42;;;;;;;10.56;75.60;101115.91;1755127;81;21046;-86
2022/09/12 00:16:40;;;;;;;5.90;3.20;;;;;;;10.53;75.69;101118.42;1767125;80;21121;-86
2022/09/12 00:19:07;;;;;;;5.92;2.85;;;;;;;10.53;75.86;101118.03;1786041;80;21727;-86
2022/09/12 00:21:43;;;;;;;5.08;2.92;;;;;;;10.57;75.92;101120.34;1760806;80;21823;-87
2022/09/12 00:24:10;;;;;;;5.65;2.77;;;;;;;10.58;75.95;101113.77;1802455;79;21031;-86
2022/09/12 00:26:37;;;;;;;6.70;2.87;;;;;;;10.58;75.91;101112.46;1776369;80;21091;-85
2022/09/12 00:29:04;;;;;;;8.08;2.65;;;;;;;10.58;75.89;101114.20;1755161;80;21129;-85
2022/09/12 00:31:30;;;;;;;5.55;2.90;;;;;;;10.58;75.97;101116.84;1730480;80;22590;-85
2022/09/12 00:33:59;;;;;;;7.60;2.85;;;;;;;10.56;75.94;101116.78;1802377;79;21074;-85
2022/09/12 00:36:26;;;;;;;5.67;2.92;;;;;;;10.55;75.96;101112.39;1750801;81;21094;-85
2022/09/12 00:38:54;;;;;;;5.85;3.10;;;;;;;10.55;76.03;101116.73;1757604;81;21725;-85
2022/09/12 00:41:33;;;;;;;4.85;2.90;;;;;;;10.55;76.21;101109.75;1735695;81;21843;-88
2022/09/12 00:44:24;;;;;;;8.10;3.20;;;;;;;10.58;76.23;101112.46;1779227;80;21657;-85
2022/09/12 00:47:01;;;;;;;7.25;2.70;;;;;;;10.60;76.15;101112.52;1762190;80;21058;-86
2022/09/12 00:49:32;;;;;;;6.87;2.77;;;;;;;10.57;76.20;101107.17;1739412;81;21144;-86
2022/09/12 00:52:04;;;;;;;5.87;3.12;;;;;;;10.56;76.26;101108.89;1730930;81;21101;-85
2022/09/12 00:54:36;;;;;;;6.83;4.35;;;;;;;10.57;76.33;101115.08;1795611;79;21607;-85
2022/09/12 00:57:05;;;;;;;10.78;4.22;;;;;;;10.56;76.28;101113.27;1739500;80;22444;-85
2022/09/12 00:59:36;;;;;;;10.20;3.70;;;;;;;10.55;76.31;101109.75;1721617;81;21082;-84
2022/09/12 01:02:03;;;;;;;7.85;4.42;;;;;;;10.53;76.31;101118.03;1764951;81;21073;-84
2022/09/12 01:04:30;;;;;;;6.62;4.10;;;;;;;10.52;76.36;101115.34;1732253;81;21291;-85
2022/09/12 01:06:57;;;;;;;5.58;2.80;;;;;;;10.49;76.41;101115.72;1783433;79;21085;-87
2022/09/12 01:09:24;;;;;;;8.30;3.67;;;;;;;10.49;76.44;101113.48;1795557;79;21681;-86
2022/09/12 01:11:52;;;;;;;3.70;2.90;;;;;;;10.48;76.47;101107.77;1738085;81;21034;-85
2022/09/12 01:14:18;;;;;;;4.40;2.02;;;;;;;10.49;76.56;101108.22;1768686;80;21126;-86
2022/09/12 01:16:51;;;;;;;9.75;3.35;;;;;;;10.50;76.62;101104.33;1785265;80;21051;-88
2022/09/12 01:19:45;;;;;;;5.70;3.92;;;;;;;10.53;76.62;101105.27;1738126;80;21057;-86
2022/09/12 01:22:29;;;;;;;12.20;4.47;;;;;;;10.54;76.63;101107.95;1769684;80;21747;-87
2022/09/12 01:25:11;;;;;;;;;;;;;;;10.56;76.70;101107.58;1766846;80;21062;-86
2022/09/12 01:28:20;;;;;;;5.10;3.55;;;;;;;10.60;76.70;101110.77;1765904;80;20245;-83
2022/09/12 01:31:07;;;;;;;8.15;3.15;;;;;;;10.58;76.61;101104.56;1760784;80;21053;-83
2022/09/12 01:34:08;;;;;;;10.05;3.58;;;;;;;10.56;76.60;101106.26;1768394;80;21564;-82
2022/09/12 01:36:59;;;;;;;4.30;2.55;;;;;;;10.54;76.59;101109.27;1758063;80;21761;-82
2022/09/12 01:39:37;;;;;;;9.90;2.87;;;;;;;10.51;76.55;101107.88;1745457;80;21113;-84
2022/09/12 01:42:21;;;;;;;7.15;3.80;;;;;;;10.47;76.52;101109.52;1767399;80;21065;-84
2022/09/12 01:45:01;;;;;;;12.82;5.62;;;;;;;10.42;76.54;101106.28;1776973;80;21117;-84
2022/09/12 01:47:33;;;;;;;10.08;4.25;;;;;;;10.39;76.61;101114.95;1762531;80;22087;-85
2022/09/12 01:50:08;;;;;;;5.03;3.12;;;;;;;10.34;76.67;101109.06;1761673;80;21767;-85
2022/09/12 01:52:54;;;;;;;9.90;5.00;;;;;;;10.30;76.76;101105.05;1781071;78;21075;-85
2022/09/12 01:55:26;;;;;;;5.47;3.30;;;;;;;10.28;76.85;101103.16;1790543;79;21051;-85
2022/09/12 01:58:01;;;;;;;6.37;3.62;;;;;;;10.26;76.94;101112.31;1759822;79;21657;-85
2022/09/12 02:00:27;;;;;;;6.45;3.47;;;;;;;10.25;77.00;101110.54;1753297;79;21121;-85
2022/09/12 02:03:09;;;;;;;4.90;3.37;;;;;;;10.25;77.02;101114.92;1726812;81;21929;-85
2022/09/12 02:05:39;;;;;;;6.28;2.75;;;;;;;10.24;77.05;101112.69;1782961;80;21054;-88
2022/09/12 02:08:19;;;;;;;6.97;3.42;;;;;;;10.23;77.09;101117.49;1795885;79;21316;-84
2022/09/12 02:10:51;;;;;;;5.58;3.35;;;;;;;10.22;77.14;101119.64;1758424;81;21384;-86
2022/09/12 02:13:46;;;;;;;8.88;3.75;;;;;;;10.22;77.20;101115.69;1774521;80;21089;-85
2022/09/12 02:16:21;;;;;;;5.47;2.90;;;;;;;10.21;77.17;101118.27;1789412;80;21801;-86
2022/09/12 02:18:54;;;;;;;11.20;4.25;;;;;;;10.19;77.23;101118.24;1752551;81;21061;-86
2022/09/12 02:21:22;;;;;;;6.03;2.65;;;;;;;10.18;77.27;101116.44;1791911;80;21050;-86
2022/09/12 02:23:54;;;;;;;9.88;3.22;;;;;;;10.16;77.29;101119.45;1758032;80;21130;-86
2022/09/12 02:26:32;;;;;;;5.05;3.15;;;;;;;10.16;77.34;101122.08;1750412;81;22166;-86
2022/09/12 02:28:59;;;;;;;7.83;3.10;;;;;;;10.14;77.34;101119.83;1760701;80;21766;-85
2022/09/12 02:31:45;;;;;;;6.05;2.67;;;;;;;10.11;77.45;101128.48;1791082;80;21089;-85
2022/09/12 02:34:40;;;;;;;8.85;3.00;;;;;;;10.14;77.49;101124.20;1774405;80;21087;-86
2022/09/12 02:37:45;;;;;;;6.05;2.62;;;;;;;10.12;77.45;101128.09;1773924;80;21050;-86
2022/09/12 02:40:13;;;;;;;4.05;2.17;;;;;;;10.11;77.45;101117.97;1782814;80;21559;-85
2022/09/12 02:42:39;;;;;;;4.25;2.37;;;;;;;10.09;77.47;101114.83;1712197;81;21777;-85
2022/09/12 02:45:07;;;;;;;4.55;2.58;;;;;;;10.07;77.52;101113.45;1766648;80;21679;-85
2022/09/12 02:48:00;;;;;;;5.40;2.58;;;;;;;10.05;77.61;101115.58;1791021;80;21086;-88
2022/09/12 02:50:26;;;;;;;4.28;2.10;;;;;;;10.04;77.64;101112.45;1764861;79;21042;-87
2022/09/12 02:52:58;;;;;;;6.22;2.40;;;;;;;10.05;77.74;101118.20;1748496;81;21062;-86
2022/09/12 02:55:23;;;;;;;3.35;2.27;;;;;;;10.06;77.78;101117.34;1803402;79;21776;-86
2022/09/12 02:57:50;;;;;;;7.70;2.50;;;;;;;10.06;77.80;101119.58;1747630;81;21319;-85
2022/09/12 03:00:17;;;;;;;5.08;2.05;;;;;;;10.09;77.78;101118.77;1780223;80;21141;-87
2022/09/12 03:03:21;;;;;;;7.12;2.35;;;;;;;10.10;77.81;101125.41;1760221;80;21075;-86
2022/09/12 03:06:00;;;;;;;5.30;2.45;;;;;;;10.10;77.86;101125.41;1762040;80;21877;-85
2022/09/12 03:08:41;;;;;;;5.03;2.12;;;;;;;10.15;77.89;101124.22;1739514;81;21918;-85
2022/09/12 03:11:16;;;;;;;3.95;2.22;;;;;;;10.16;77.78;101125.14;1725205;81;21610;-83
2022/09/12 03:14:08;;;;;;;3.92;2.20;;;;;;;10.15;77.74;101128.59;1712958;81;21081;-83
2022/09/12 03:16:55;;;;;;;5.03;2.42;;;;;;;10.12;77.78;101128.97;1719158;82;21742;-83
2022/09/12 03:19:30;;;;;;;4.75;2.17;;;;;;;10.15;77.88;101131.23;1758563;80;21102;-82
2022/09/12 03:22:25;;;;;;;6.40;2.60;;;;;;;10.17;77.93;101133.48;1707473;81;21956;-82
2022/09/12 03:25:32;;;;;;;5.28;2.37;;;;;;;10.18;77.85;101137.92;1689504;82;21079;-84
2022/09/12 03:28:06;;;;;;;5.95;2.30;;;;;;;10.16;77.75;101139.18;1738343;81;21067;-82
2022/09/12 03:30:45;;;;;;;6.15;2.40;;;;;;;10.14;77.76;101133.41;1728041;82;21097;-85
2022/09/12 03:33:17;;;;;;;7.78;2.65;;;;;;;10.11;77.78;101135.06;1730382;81;21285;-83
2022/09/12 03:35:44;;;;;;;2.87;2.00;;;;;;;10.13;77.85;101140.38;1728319;82;22960;-85
2022/09/12 03:38:11;;;;;;;4.80;2.40;;;;;;;10.12;77.82;101147.39;1758130;81;21364;-83
2022/09/12 03:40:39;;;;;;;6.87;2.95;;;;;;;10.08;77.78;101153.39;1758523;81;21150;-83
2022/09/12 03:43:06;;;;;;;5.05;2.00;;;;;;;10.05;77.79;101152.39;1728866;82;21066;-83
2022/09/12 03:45:34;;;;;;;5.15;2.55;;;;;;;10.03;77.83;101160.23;1753475;80;21064;-83
2022/09/12 03:48:01;;;;;;;4.25;2.30;;;;;;;10.02;77.93;101153.59;1729894;81;22420;-86
2022/09/12 03:50:28;;;;;;;7.35;2.62;;;;;;;10.02;78.00;101153.59;1723399;81;21638;-84
2022/09/12 03:52:55;;;;;;;4.20;2.52;;;;;;;10.00;78.00;101154.85;1731287;80;21046;-85
2022/09/12 03:55:22;;;;;;;9.55;2.70;;;;;;;9.99;78.03;101155.71;1722744;81;21172;-85
2022/09/12 03:57:52;;;;;;;6.80;2.22;;;;;;;9.96;78.03;101151.66;1743282;81;21062;-86
2022/09/12 04:00:19;;;;;;;4.45;2.42;;;;;;;9.93;78.10;101147.62;1741545;81;21765;-84
2022/09/12 04:02:46;;;;;;;4.20;2.25;;;;;;;9.90;78.16;101151.45;1723789;82;21114;-85
2022/09/12 04:05:13;;;;;;;3.22;2.42;;;;;;;9.90;78.22;101154.08;1740034;81;21303;-86
2022/09/12 04:07:40;;;;;;;6.05;2.55;;;;;;;9.91;78.33;101150.62;1752274;81;21097;-87
2022/09/12 04:10:07;;;;;;;5.75;2.47;;;;;;;9.96;78.49;101149.02;1724289;82;21127;-87
2022/09/12 04:12:34;;;;;;;5.37;2.90;;;;;;;10.05;78.58;101149.77;1697149;83;21803;-90
2022/09/12 04:15:01;;;;;;;6.08;2.85;;;;;;;10.12;78.51;101153.08;1724667;83;21061;-90
2022/09/12 04:17:29;;;;;;;6.78;2.65;;;;;;;10.17;78.42;101154.53;1724405;82;21150;-92
2022/09/12 04:19:56;;;;;;;4.97;2.37;;;;;;;10.19;78.38;101149.81;1716012;82;21148;-91
2022/09/12 04:22:23;;;;;;;5.05;2.45;;;;;;;10.22;78.28;101156.47;1714231;82;21072;-84
2022/09/12 04:24:50;;;;;;;6.42;2.47;;;;;;;10.23;78.17;101157.35;1732098;82;21729;-84
2022/09/12 04:27:17;;;;;;;5.70;2.80;;;;;;;10.22;78.13;101154.27;1726448;81;21049;-90
2022/09/12 04:29:46;;;;;;;9.75;2.50;;;;;;;10.20;78.13;101155.53;1745572;81;21089;-91
2022/09/12 04:32:13;;;;;;;5.85;2.50;;;;;;;10.22;78.12;101161.73;1783271;80;21096;-90
2022/09/12 04:34:41;;;;;;;6.75;2.67;;;;;;;10.23;78.18;101167.48;1714303;82;21058;-83
2022/09/12 04:37:25;;;;;;;4.05;2.22;;;;;;;10.25;78.17;101166.22;1727754;82;23181;-87
2022/09/12 04:40:05;;;;;;;3.83;2.35;;;;;;;10.54;78.92;101169.81;1714602;83;21034;-92
2022/09/12 04:42:56;;;;;;;7.80;2.70;;;;;;;11.44;79.49;101172.94;1714420;83;21042;-92
2022/09/12 04:45:24;;;;;;;7.97;2.85;;;;;;;12.23;79.27;101166.70;1723832;81;21058;-86
2022/09/12 04:47:51;;;;;;;5.28;2.47;;;;;;;13.59;78.98;101160.48;1741620;81;21121;-85
2022/09/12 04:50:18;;;;;;;4.67;2.20;;;;;;;13.90;76.32;101161.05;1728287;81;21669;-85
2022/09/12 04:52:53;;;;;;;5.37;2.45;;;;;;;13.66;74.87;101166.33;1721943;82;21069;-84
2022/09/12 04:55:20;;;;;;;4.70;2.90;;;;;;;13.61;74.98;101164.94;1699196;82;21890;-84
2022/09/12 04:57:47;;;;;;;4.75;2.92;;;;;;;13.29;73.71;101164.27;1716520;82;21072;-84
2022/09/12 05:00:15;;;;;;;5.75;2.60;;;;;;;12.93;73.64;101171.89;1720838;82;21624;-85
2022/09/12 05:02:42;;;;;;;6.05;2.75;;;;;;;12.72;73.83;101172.70;1766920;80;21757;-84
2022/09/12 05:05:09;;;;;;;5.97;2.50;;;;;;;12.68;73.91;101174.38;1774030;80;21053;-88
2022/09/12 05:08:08;;;;;;;4.30;2.55;;;;;;;12.72;73.99;101173.59;1757991;80;21152;-87
2022/09/12 05:10:36;;;;;;;5.78;2.27;;;;;;;12.79;73.92;101174.64;1727394;80;21124;-85
2022/09/12 05:13:03;;;;;;;5.37;3.02;;;;;;;12.85;73.71;101172.13;1765839;80;21576;-84
2022/09/12 05:15:29;;;;;;;6.95;2.47;;;;;;;12.91;73.66;101171.37;1779795;80;22382;-84
2022/09/12 05:17:56;;;;;;;5.45;2.70;;;;;;;13.00;73.62;101170.25;1767451;80;21074;-84
2022/09/12 05:20:27;;;;;;;7.30;2.60;;;;;;;13.10;73.57;101166.97;1765448;80;21045;-91
2022/09/12 05:23:00;;;;;;;6.60;2.50;;;;;;;13.19;73.39;101171.53;1772941;80;21071;-88
2022/09/12 05:25:27;;;;;;;8.03;2.77;;;;;;;13.28;73.34;101172.16;1764080;80;21099;-91
2022/09/12 05:27:54;;;;;;;5.80;2.77;;;;;;;13.34;73.14;101169.23;1780076;80;21812;-90
2022/09/12 05:30:27;;;;;;;6.58;2.77;;;;;;;13.40;73.12;101170.70;1759921;80;21076;-92
2022/09/12 05:32:55;;;;;;;5.17;2.62;;;;;;;13.46;73.13;101169.94;1761855;81;21111;-93
2022/09/12 05:35:34;;;;;;;4.55;2.20;;;;;;;13.50;72.91;101177.50;1761868;81;21032;-94
2022/09/12 05:38:01;;;;;;;6.15;2.47;;;;;;;13.52;72.81;101181.06;1761260;81;21554;-88
2022/09/12 05:40:27;;;;;;;5.97;2.17;;;;;;;13.50;72.78;101176.17;1777531;80;21732;-86
2022/09/12 05:42:54;;;;;;;8.53;2.30;;;;;;;13.53;72.75;101181.50;1771139;80;21102;-86
2022/09/12 05:45:22;;;;;;;7.37;2.22;;;;;;;13.51;72.67;101173.53;1772309;80;21062;-87
2022/09/12 05:47:49;;;;;;;5.60;2.10;;;;;;;13.50;72.65;101182.79;1765493;80;21107;-86
2022/09/12 05:50:15;;;;;;;11.03;2.40;;;;;;;13.51;72.60;101184.11;1761957;80;21071;-88
2022/09/12 05:52:42;;;;;;;7.03;2.35;;;;;;;13.52;72.67;101185.03;1777590;79;21747;-91
2022/09/12 05:55:10;;;;;;;7.70;2.35;;;;;;;13.54;72.66;101188.59;1722202;81;21139;-87
2022/09/12 05:57:37;;;;;;;6.45;2.60;;;;;;;13.56;72.61;101179.81;1788313;79;21051;-87
2022/09/12 06:00:07;;;;;;;4.85;2.10;;;;;;;13.59;72.62;101186.94;1722183;81;21070;-85
2022/09/12 06:02:33;;;;;;;10.60;2.70;;;;;;;13.59;72.44;101186.50;1769469;80;21043;-87
2022/09/12 06:05:00;;;;;;;5.42;2.35;;;;;;;13.63;72.37;101191.83;1739871;81;21784;-88
2022/09/12 06:07:28;;;;;;;12.15;2.55;;;;;;;13.65;72.32;101184.41;1743704;81;21110;-87
2022/09/12 06:09:55;;;;;;;3.42;1.95;;;;;;;13.70;72.21;101194.66;1745034;81;21062;-87
2022/09/12 06:12:22;;;;;;;7.45;2.50;;;;;;;13.74;71.98;101185.91;1711672;82;21058;-84
2022/09/12 06:14:49;;;;;;;3.98;2.12;;;;;;;13.78;71.98;101189.06;1717430;82;21158;-85
2022/09/12 06:17:16;;;;;;;4.08;1.98;;;;;;;13.84;71.84;101183.00;1725237;82;21729;-87
2022/09/12 06:19:44;;;;;;;4.85;2.22;;;;;;;13.87;71.74;101184.80;1722198;82;21075;-85
2022/09/12 06:22:11;;;;;;;8.75;2.62;;;;;;;13.91;71.69;101192.84;1741999;81;21137;-85
2022/09/12 06:24:38;;;;;;;5.85;2.17;;;;;;;13.94;71.45;101183.61;1708818;83;21082;-85
2022/09/12 06:27:05;;;;;;;7.47;2.17;;;;;;;13.98;71.42;101192.09;1736912;81;21112;-86
2022/09/12 06:29:32;;;;;;;3.80;2.00;;;;;;;14.03;71.21;101189.52;1740555;81;21822;-85
2022/09/12 06:31:59;;;;;;;6.00;2.10;;;;;;;14.08;71.26;101193.14;1711487;82;21651;-87
2022/09/12 06:34:26;;;;;;;5.00;1.92;;;;;;;14.15;71.13;101195.44;1731602;81;21762;-87
2022/09/12 06:36:53;;;;;;;8.48;2.10;;;;;;;14.20;70.86;101195.98;1745643;81;21074;-87
2022/09/12 06:39:21;;;;;;;3.35;1.95;;;;;;;14.27;70.77;101194.34;1733973;81;21496;-86
2022/09/12 06:41:51;;;;;;;4.90;2.05;;;;;;;14.33;70.56;101197.09;1737570;81;21769;-86
2022/09/12 06:44:21;;;;;;;5.25;2.25;;;;;;;14.38;70.42;101196.73;1686672;83;21722;-92
2022/09/12 06:46:48;;;;;;;3.87;2.20;;;;;;;14.44;70.32;101193.30;1735127;81;21082;-91
2022/09/12 06:49:16;;;;;;;6.47;2.00;;;;;;;14.49;70.10;101198.25;1733749;81;21083;-91
2022/09/12 06:51:49;;;;;;;3.50;1.87;;;;;;;14.54;69.90;101197.86;1746175;81;21074;-93
2022/09/12 06:54:18;;;;;;;9.95;2.10;;;;;;;14.60;69.88;101198.87;1706102;81;21789;-92
2022/09/12 06:56:46;;;;;;;2.60;1.72;;;;;;;14.67;69.67;101206.05;1713489;83;21283;-92
2022/09/12 06:59:47;;;;;;;4.65;2.08;;;;;;;14.73;69.53;101203.48;1737978;81;21094;-95
2022/09/12 07:02:24;;;;;;;5.25;1.98;;;;;;;14.78;69.39;101200.04;1762417;79;21094;-93
2022/09/12 07:04:50;;;;;;;6.10;2.00;;;;;;;14.85;69.19;101209.43;1749679;80;21851;-93
2022/09/12 07:07:47;;;;;;;2.70;1.60;;;;;;;14.91;69.29;101200.23;1740062;82;23586;-92
2022/09/12 07:10:14;;;;;;;4.10;1.60;;;;;;;14.99;69.01;101199.02;1739037;82;21039;-92
2022/09/12 07:12:41;;;;;;;2.87;1.67;;;;;;;15.05;68.67;101215.00;1726767;82;21181;-88
2022/09/12 07:15:15;;;;;;;4.05;2.05;;;;;;;15.10;68.71;101211.98;1718088;82;21575;-87
2022/09/12 07:17:55;;;;;;;5.25;1.67;;;;;;;15.15;68.60;101219.13;1726296;82;21063;-91
2022/09/12 07:23:54;;;;;;;3.72;1.75;;;;;;;15.27;68.14;101211.77;1727617;82;21079;-93
2022/09/12 07:26:42;;;;;;;5.90;1.62;;;;;;;15.32;67.78;101218.03;1723168;82;21035;-94
2022/09/12 07:33:07;;;;;;;6.40;1.95;;;;;;;15.39;67.48;101226.06;1803332;79;21094;-87
2022/09/12 07:35:35;;;;;;;4.75;1.60;;;;;;;15.44;67.52;101227.89;1802754;79;22634;-87
2022/09/12 07:38:02;;;;;;;3.83;1.35;;;;;;;15.50;67.45;101221.36;1802506;79;21035;-86
2022/09/12 07:40:29;;;;;;;4.08;1.90;;;;;;;15.55;67.17;101232.02;1785502;79;21047;-93
2022/09/12 07:42:59;;;;;;;2.83;1.50;;;;;;;15.61;67.16;101227.22;1779047;79;21074;-92
2022/09/12 07:46:04;;;;;;;8.05;5.42;;;;;;;15.67;67.10;101236.16;1715598;82;21057;-92
2022/09/12 07:48:44;;;;;;;4.35;3.80;;;;;;;15.73;66.83;101244.22;1784019;79;21812;-93
2022/09/12 07:51:31;;;;;;;4.42;3.08;;;;;;;15.78;66.50;101234.97;1752862;80;21030;-93
2022/09/12 07:53:58;;;;;;;3.50;2.10;;;;;;;15.87;66.68;101232.86;1792822;79;21057;-92
2022/09/12 07:56:28;;;;;;;4.17;1.77;;;;;;;16.03;66.78;101234.81;1718911;82;21098;-87
2022/09/12 07:58:55;;;;;;;5.50;2.62;;;;;;;16.31;66.75;101239.95;1781221;79;21066;-91
2022/09/12 08:01:28;;;;;;;4.92;2.05;;;;;;;16.66;66.29;101229.16;1798034;79;22456;-88
2022/09/12 08:03:57;;;;;;;6.35;2.02;;;;;;;16.88;65.59;101224.48;1789512;79;21675;-92
2022/09/12 08:06:26;;;;;;;1.92;1.40;;;;;;;16.99;64.64;101234.31;1743234;80;21086;-87
2022/09/12 08:08:56;;;;;;;4.58;2.02;;;;;;;16.93;64.56;101234.25;1763848;80;21473;-87
2022/09/12 08:11:26;;;;;;;5.20;2.35;;;;;;;16.98;64.35;101237.84;1765832;79;21067;-86
2022/09/12 08:13:54;;;;;;;4.40;1.72;;;;;;;16.99;64.28;101239.19;1769134;80;21764;-87
2022/09/12 08:16:25;;;;;;;4.28;1.65;;;;;;;17.08;64.16;101237.04;1772604;80;21034;-87
2022/09/12 08:18:52;;;;;;;6.28;1.92;;;;;;;17.23;63.75;101240.20;1793990;78;22184;-88
2022/09/12 08:21:25;;;;;;;2.72;1.37;;;;;;;17.34;63.81;101234.94;1792017;79;21074;-87
2022/09/12 08:24:05;;;;;;;3.98;1.47;;;;;;;17.48;63.38;101236.78;1800948;79;21050;-86
2022/09/12 08:26:33;;;;;;;4.65;2.20;;;;;;;17.45;62.94;101236.76;1733934;81;21685;-86
2022/09/12 08:29:01;;;;;;;2.42;1.30;;;;;;;17.25;62.00;101249.98;1796070;79;21551;-91
2022/09/12 08:31:27;;;;;;;4.58;1.50;;;;;;;17.14;62.23;101249.48;1794359;79;21066;-90
2022/09/12 08:33:55;;;;;;;3.15;1.40;;;;;;;17.17;62.16;101246.82;1793356;78;21080;-90
2022/09/12 08:36:24;;;;;;;5.65;4.58;;;;;;;17.21;62.05;101253.93;1786643;79;21069;-91
2022/09/12 08:38:55;;;;;;;3.92;2.33;;;;;;;17.20;61.79;101258.82;1794283;79;21800;-91
2022/09/12 08:41:33;;;;;;;7.30;3.58;;;;;;;17.12;61.65;101252.55;1799238;78;21125;-87
2022/09/12 08:44:43;;;;;;;2.45;1.70;;;;;;;17.15;61.13;101255.23;1799680;78;21105;-87
2022/09/12 08:47:34;;;;;;;5.67;3.17;;;;;;;17.25;61.38;101247.77;1800849;79;21102;-87
2022/09/12 08:50:17;;;;;;;3.83;1.52;;;;;;;17.47;61.37;101262.05;1807623;78;21135;-88
2022/09/12 08:53:02;;;;;;;7.92;2.20;;;;;;;17.58;60.62;101260.78;1802824;78;21767;-87
2022/09/12 08:55:43;;;;;;;;;;;;;;;17.67;60.59;101248.84;1791962;79;21059;-87
2022/09/12 08:58:25;;;;;;;2.27;1.80;;;;;;;17.83;60.44;101247.10;1806746;79;20201;-85
2022/09/12 09:01:22;;;;;;;5.53;2.00;;;;;;;17.92;60.38;101252.49;1805361;78;22139;-86
2022/09/12 09:04:17;;;;;;;4.15;1.90;;;;;;;17.93;60.10;101245.42;1784921;79;21569;-84
2022/09/12 09:07:09;;;;;;;2.40;1.30;;;;;;;18.02;59.81;101248.11;1766171;79;22590;-85
2022/09/12 09:10:18;;;;;;;3.37;1.22;;;;;;;17.94;59.44;101242.73;1769103;79;21082;-85
2022/09/12 09:14:46;;;;;;;4.40;1.70;;;;;;;17.91;58.49;101244.52;1758469;80;21529;-85
2022/09/12 09:16:01;;;;;;;1.72;1.02;;;;;;;17.87;59.10;101250.28;1773163;79;21067;-85
2022/09/12 09:18:31;;;;;;;1.42;1.17;;;;;;;17.86;58.73;101244.05;1777772;80;21083;-85
2022/09/12 09:21:30;;;;;;;4.22;1.30;;;;;;;17.88;58.71;101257.37;1780403;79;21739;-91
2022/09/12 09:24:04;;;;;;;7.97;1.40;;;;;;;17.85;58.34;101250.27;1710109;81;21118;-88
2022/09/12 09:26:55;;;;;;;5.30;1.47;;;;;;;17.79;57.91;101254.64;1765429;79;21147;-85
2022/09/12 09:29:44;;;;;;;3.30;1.30;;;;;;;17.84;58.25;101251.56;1783752;79;21102;-85
2022/09/12 09:32:21;;;;;;;3.75;1.10;;;;;;;17.96;58.16;101258.72;1784876;79;21074;-85
2022/09/12 09:34:48;;;;;;;2.35;1.25;;;;;;;17.98;57.48;101275.59;1774925;79;21832;-85
2022/09/12 09:37:41;;;;;;;1.50;1.15;;;;;;;17.92;57.47;101257.81;1781534;80;21078;-86
2022/09/12 09:40:24;;;;;;;2.17;1.02;;;;;;;17.98;57.25;101257.86;1778177;79;21608;-88
2022/09/12 09:42:59;;;;;;;2.98;1.50;;;;;;;18.03;56.46;101259.19;1781770;78;21062;-90
2022/09/12 09:45:28;;;;;;;4.35;1.35;;;;;;;18.03;56.52;101265.84;1776204;79;21063;-92
2022/09/12 09:48:20;;;;;;;1.90;1.15;;;;;;;18.02;55.74;101272.96;1772593;78;21749;-91
2022/09/12 09:50:48;;;;;;;1.85;1.17;;;;;;;18.03;55.97;101264.52;1781898;79;21102;-86
2022/09/12 09:53:35;;;;;;;1.42;1.10;;;;;;;18.04;55.94;101259.65;1783245;79;21059;-86
2022/09/12 09:56:34;;;;;;;4.03;1.07;;;;;;;18.02;55.97;101260.09;1766342;79;21070;-91
2022/09/12 09:59:36;;;;;;;5.33;3.27;;;;;;;18.03;56.10;101259.19;1756916;79;21019;-86
2022/09/12 10:02:13;;;;;;;7.40;4.30;;;;;;;18.01;56.11;101255.18;1752348;79;21773;-87
2022/09/12 10:04:43;;;;;;;2.60;1.85;;;;;;;18.06;56.01;101260.09;1767453;78;21051;-87
2022/09/12 10:07:20;;;;;;;7.08;1.82;;;;;;;18.01;55.50;101263.17;1777343;79;21015;-87
2022/09/12 10:10:16;;;;;;;3.20;1.70;;;;;;;17.99;55.94;101261.41;1787944;79;21055;-87
2022/09/12 10:12:43;;;;;;;3.83;1.67;;;;;;;18.05;55.88;101262.73;1764910;80;22232;-87
2022/09/12 10:15:29;;;;;;;2.15;1.45;;;;;;;18.12;55.76;101251.22;1758545;80;21735;-87
2022/09/12 10:17:57;;;;;;;3.37;1.35;;;;;;;18.09;55.51;101261.86;1765525;80;21086;-87
2022/09/12 10:20:42;;;;;;;5.25;1.37;;;;;;;18.10;55.43;101259.66;1751918;80;21122;-92
2022/09/12 10:23:36;;;;;;;3.00;1.40;;;;;;;18.11;55.57;101261.41;1789978;79;21050;-93
2022/09/12 10:26:11;;;;;;;5.10;1.32;;;;;;;18.16;55.68;101249.00;1789553;79;21050;-87
2022/09/12 10:28:54;;;;;;;4.05;2.15;;;;;;;18.06;55.37;101251.22;1795602;79;21840;-87
2022/09/12 10:31:31;;;;;;;2.93;1.40;;;;;;;17.95;55.58;101238.31;1767423;79;21083;-88
2022/09/12 10:33:59;;;;;;;5.47;2.02;;;;;;;17.83;55.51;101253.34;1795937;78;21034;-87
2022/09/12 10:36:28;;;;;;;10.28;7.67;;;;;;;17.81;55.74;101250.20;1794074;79;21152;-87
2022/09/12 10:38:57;;;;;;;9.30;5.33;;;;;;;17.94;55.98;101254.72;1758066;79;21070;-87
2022/09/12 10:41:23;;;;;;;6.87;3.55;;;;;;;18.13;55.56;101254.77;1777522;79;21762;-87
2022/09/12 10:43:50;;;;;;;3.67;2.10;;;;;;;18.23;55.58;101261.91;1782175;79;21067;-88
2022/09/12 10:46:22;;;;;;;4.08;1.80;;;;;;;18.25;55.28;101262.80;1787707;79;21034;-89
2022/09/12 10:48:54;;;;;;;3.08;1.80;;;;;;;18.26;55.15;101267.22;1792374;79;21015;-87
2022/09/12 10:51:27;;;;;;;6.92;2.02;;;;;;;18.36;55.29;101258.81;1797248;78;21101;-86
2022/09/12 10:53:59;;;;;;;4.08;2.20;;;;;;;18.53;55.12;101251.71;1791586;78;21741;-87
2022/09/12 10:56:33;;;;;;;1.95;1.22;;;;;;;18.62;54.77;101253.50;1798649;78;21100;-86
2022/09/12 10:59:20;;;;;;;3.90;1.95;;;;;;;18.58;54.73;101255.69;1800400;78;21058;-87
2022/09/12 11:01:52;;;;;;;3.27;1.40;;;;;;;18.42;54.32;101275.69;1797062;78;21117;-87
2022/09/12 11:04:33;;;;;;;5.00;1.92;;;;;;;18.20;54.26;101263.22;1799818;78;21054;-86
2022/09/12 11:07:27;;;;;;;4.80;1.20;;;;;;;18.10;54.57;101255.66;1781703;79;21866;-86
2022/09/12 11:10:22;;;;;;;5.45;1.45;;;;;;;18.10;54.50;101256.11;1799546;78;21029;-86
2022/09/12 11:13:16;;;;;;;2.87;1.57;;;;;;;18.15;54.44;101255.66;1797854;79;21155;-86
2022/09/12 11:16:04;;;;;;;3.30;1.67;;;;;;;18.26;54.62;101252.14;1795152;79;21117;-86
2022/09/12 11:18:58;;;;;;;3.35;1.40;;;;;;;18.41;54.33;101250.36;1785695;79;21241;-87
2022/09/12 11:25:14;;;;;;;2.77;1.40;;;;;;;18.16;53.81;101253.45;1730668;80;21050;-92
2022/09/12 11:28:01;;;;;;;2.42;1.25;;;;;;;18.06;54.00;101261.42;1788676;79;21584;-86
2022/09/12 11:30:32;;;;;;;1.50;1.30;;;;;;;17.99;53.97;101261.41;1794677;78;21128;-86
2022/09/12 11:33:13;;;;;;;8.05;1.77;;;;;;;17.93;53.91;101260.95;1808186;79;21105;-91
2022/09/12 11:35:47;;;;;;;3.25;1.37;;;;;;;17.79;54.05;101258.22;1794537;78;21848;-91
2022/09/12 11:38:40;;;;;;;3.02;1.25;;;;;;;17.79;54.30;101265.30;1798796;79;21059;-91
2022/09/12 11:41:33;;;;;;;4.37;1.53;;;;;;;17.79;54.36;101260.88;1805972;78;21078;-92
2022/09/12 11:44:22;;;;;;;5.40;1.82;;;;;;;17.82;54.24;101261.32;1754913;80;21050;-91
2022/09/12 11:46:48;;;;;;;5.37;3.37;;;;;;;17.90;54.04;101261.38;1806087;79;21063;-90
2022/09/12 11:49:27;;;;;;;7.95;1.67;;;;;;;17.91;53.96;101262.72;1772195;80;21791;-87
2022/09/12 11:52:18;;;;;;;7.15;3.83;;;;;;;17.89;53.95;101264.48;1747970;80;21054;-87
2022/09/12 11:55:06;;;;;;;3.25;2.22;;;;;;;17.95;54.13;101257.84;1717123;82;21079;-87
2022/09/12 11:57:42;;;;;;;6.97;1.80;;;;;;;18.02;54.14;101269.41;1791944;79;21117;-86
2022/09/12 12:00:37;;;;;;;3.85;1.98;;;;;;;17.93;53.95;101265.39;1789087;78;21070;-87
2022/09/12 12:03:31;;;;;;;5.90;1.30;;;;;;;17.87;54.13;101264.93;1788439;79;22869;-87
2022/09/12 12:06:24;;;;;;;3.67;1.57;;;;;;;17.85;54.08;101263.59;1803956;78;21498;-85
2022/09/12 12:08:52;;;;;;;4.35;1.35;;;;;;;17.86;54.04;101269.80;1803410;78;21101;-86
2022/09/12 12:11:37;;;;;;;3.22;1.55;;;;;;;17.87;53.96;101259.16;1793766;78;21566;-86
2022/09/12 12:14:13;;;;;;;2.98;1.57;;;;;;;17.81;53.88;101265.77;1795037;79;21042;-86
2022/09/12 12:16:40;;;;;;;2.12;1.50;;;;;;;17.76;53.91;101279.95;1786827;79;22575;-86